createdAt,value
2019-05-12T00:00:29.693Z,9.57
2019-05-12T00:02:59.116Z,9.53
2019-05-12T00:05:27.786Z,9.43
2019-05-12T00:07:54.514Z,9.38
2019-05-12T00:10:21.372Z,9.53
2019-05-12T00:12:48.674Z,9.58
2019-05-12T00:15:18.779Z,9.58
2019-05-12T00:17:45.100Z,9.62
2019-05-12T00:20:12.214Z,9.58
2019-05-12T00:22:50.167Z,9.57
2019-05-12T00:25:18.111Z,9.58
2019-05-12T00:27:48.257Z,9.60
2019-05-12T00:30:18.411Z,9.61
2019-05-12T00:32:47.755Z,9.56
2019-05-12T00:35:18.260Z,9.55
2019-05-12T00:37:45.460Z,9.50
2019-05-12T00:40:12.450Z,9.48
2019-05-12T00:42:39.898Z,9.42
2019-05-12T00:45:08.083Z,9.44
2019-05-12T00:47:35.791Z,9.39
2019-05-12T00:50:04.903Z,9.39
2019-05-12T00:52:32.001Z,9.27
2019-05-12T00:54:59.058Z,9.21
2019-05-12T00:57:25.856Z,9.16
2019-05-12T00:59:52.723Z,9.21
2019-05-12T01:02:19.787Z,9.28
2019-05-12T01:04:48.698Z,9.32
2019-05-12T01:07:15.419Z,9.33
2019-05-12T01:09:42.939Z,9.17
2019-05-12T01:12:09.706Z,9.06
2019-05-12T01:14:38.392Z,9.03
2019-05-12T01:17:05.300Z,9.09
2019-05-12T01:19:33.109Z,9.09
2019-05-12T01:22:00.481Z,9.05
2019-05-12T01:24:28.238Z,9.16
2019-05-12T01:26:58.581Z,9.20
2019-05-12T01:29:28.017Z,9.15
2019-05-12T01:32:14.116Z,9.17
2019-05-12T01:34:40.914Z,9.11
2019-05-12T01:37:23.100Z,9.16
2019-05-12T01:39:52.122Z,9.24
2019-05-12T01:42:19.196Z,9.19
2019-05-12T01:44:48.154Z,9.12
2019-05-12T01:47:18.797Z,9.18
2019-05-12T01:49:45.843Z,9.17
2019-05-12T01:52:13.186Z,9.14
2019-05-12T01:54:42.808Z,9.16
2019-05-12T01:57:09.660Z,9.18
2019-05-12T01:59:38.150Z,9.21
2019-05-12T02:02:05.684Z,9.23
2019-05-12T02:04:37.962Z,9.22
2019-05-12T02:07:08.328Z,9.11
2019-05-12T02:09:38.729Z,9.18
2019-05-12T02:12:08.248Z,9.14
2019-05-12T02:14:35.182Z,9.12
2019-05-12T02:17:01.948Z,9.11
2019-05-12T02:19:28.712Z,9.14
2019-05-12T02:21:57.787Z,9.13
2019-05-12T02:24:27.348Z,9.16
2019-05-12T02:26:52.860Z,9.20
2019-05-12T02:29:20.003Z,9.17
2019-05-12T02:31:50.038Z,9.12
2019-05-12T02:34:16.279Z,9.10
2019-05-12T02:36:44.769Z,9.02
2019-05-12T02:39:14.998Z,8.98
2019-05-12T02:41:41.131Z,8.98
2019-05-12T02:44:07.903Z,9.04
2019-05-12T02:46:35.084Z,9.07
2019-05-12T02:49:04.885Z,9.11
2019-05-12T02:51:35.185Z,9.11
2019-05-12T02:54:01.697Z,9.13
2019-05-12T02:56:30.210Z,9.11
2019-05-12T02:59:00.124Z,9.10
2019-05-12T03:01:27.629Z,9.03
2019-05-12T03:03:57.201Z,9.00
2019-05-12T03:06:25.215Z,8.93
2019-05-12T03:08:55.155Z,8.97
2019-05-12T03:11:27.171Z,9.02
2019-05-12T03:13:54.853Z,8.99
2019-05-12T03:16:25.391Z,9.00
2019-05-12T03:18:50.593Z,8.95
2019-05-12T03:21:17.351Z,8.97
2019-05-12T03:23:44.972Z,8.99
2019-05-12T03:26:15.368Z,8.97
2019-05-12T03:28:44.371Z,8.90
2019-05-12T03:31:09.996Z,8.89
2019-05-12T03:33:43.696Z,8.87
2019-05-12T03:36:08.976Z,8.78
2019-05-12T03:38:36.002Z,8.74
2019-05-12T03:41:05.318Z,8.78
2019-05-12T03:43:35.089Z,8.80
2019-05-12T03:46:04.937Z,8.69
2019-05-12T03:48:29.904Z,8.65
2019-05-12T03:50:56.748Z,8.55
2019-05-12T03:53:24.775Z,8.50
2019-05-12T03:55:55.264Z,8.43
2019-05-12T03:58:21.082Z,8.48
2019-05-12T04:00:48.162Z,8.47
2019-05-12T04:03:15.548Z,8.40
2019-05-12T04:05:45.259Z,8.39
2019-05-12T04:08:11.334Z,8.32
2019-05-12T04:10:38.142Z,8.37
2019-05-12T04:13:05.061Z,8.38
2019-05-12T04:15:34.706Z,8.42
2019-05-12T04:18:00.827Z,8.39
2019-05-12T04:20:27.625Z,8.40
2019-05-12T04:22:54.844Z,8.43
2019-05-12T04:25:24.990Z,8.37
2019-05-12T04:27:54.076Z,8.38
2019-05-12T04:30:20.340Z,8.29
2019-05-12T04:32:47.566Z,8.25
2019-05-12T04:35:15.302Z,8.27
2019-05-12T04:37:44.915Z,8.38
2019-05-12T04:40:14.577Z,8.40
2019-05-12T04:42:40.570Z,8.32
2019-05-12T04:45:07.828Z,8.26
2019-05-12T04:47:35.532Z,8.36
2019-05-12T04:50:05.384Z,8.36
2019-05-12T04:52:35.135Z,8.32
2019-05-12T04:55:04.685Z,8.33
2019-05-12T04:57:34.353Z,8.34
2019-05-12T05:00:04.818Z,8.38
2019-05-12T05:02:30.761Z,8.39
2019-05-12T05:04:57.655Z,8.36
2019-05-12T05:07:24.596Z,8.31
2019-05-12T05:09:51.386Z,8.32
2019-05-12T05:12:18.176Z,8.28
2019-05-12T05:14:44.931Z,8.21
2019-05-12T05:17:11.775Z,8.17
2019-05-12T05:19:38.786Z,8.21
2019-05-12T05:22:05.550Z,8.25
2019-05-12T05:24:33.920Z,8.20
2019-05-12T05:27:00.914Z,8.18
2019-05-12T05:29:27.720Z,8.28
2019-05-12T05:31:54.642Z,8.29
2019-05-12T05:34:23.462Z,8.32
2019-05-12T05:36:51.051Z,8.32
2019-05-12T05:39:19.340Z,8.26
2019-05-12T05:41:50.926Z,8.17
2019-05-12T05:44:14.779Z,8.16
2019-05-12T05:46:47.746Z,8.24
2019-05-12T05:49:10.675Z,8.14
2019-05-12T05:51:44.407Z,8.08
2019-05-12T05:54:07.285Z,8.11
2019-05-12T05:56:42.452Z,8.10
2019-05-12T05:59:04.597Z,8.12
2019-05-12T06:01:34.500Z,8.07
2019-05-12T06:04:04.258Z,8.13
2019-05-12T06:06:29.300Z,8.10
2019-05-12T06:08:57.372Z,8.09
2019-05-12T06:11:28.345Z,8.04
2019-05-12T06:13:54.690Z,8.07
2019-05-12T06:16:24.916Z,8.08
2019-05-12T06:18:50.420Z,8.14
2019-05-12T06:21:17.396Z,8.07
2019-05-12T06:23:44.402Z,8.12
2019-05-12T06:26:13.821Z,8.07
2019-05-12T06:28:41.272Z,8.05
2019-05-12T06:31:08.579Z,8.06
2019-05-12T06:33:36.998Z,8.15
2019-05-12T06:36:07.067Z,8.13
2019-05-12T06:38:37.194Z,8.15
2019-05-12T06:41:03.602Z,8.18
2019-05-12T06:43:35.277Z,8.19
2019-05-12T06:45:58.989Z,8.24
2019-05-12T06:48:30.174Z,8.24
2019-05-12T06:50:54.666Z,8.21
2019-05-12T06:53:29.026Z,8.26
2019-05-12T06:55:50.156Z,8.28
2019-05-12T06:58:26.032Z,8.31
2019-05-12T07:00:46.329Z,8.32
2019-05-12T07:03:14.279Z,8.32
2019-05-12T07:05:43.245Z,8.38
2019-05-12T07:08:10.722Z,8.42
2019-05-12T07:10:43.357Z,8.31
2019-05-12T07:13:06.414Z,8.27
2019-05-12T07:15:35.580Z,8.41
2019-05-12T07:18:10.543Z,8.48
2019-05-12T07:20:39.154Z,8.52
2019-05-12T07:23:06.424Z,8.53
2019-05-12T07:25:36.268Z,8.58
2019-05-12T07:28:07.271Z,8.72
2019-05-12T07:30:35.021Z,8.81
2019-05-12T07:33:01.503Z,8.87
2019-05-12T07:35:33.812Z,9.02
2019-05-12T07:38:01.059Z,9.11
2019-05-12T07:40:30.123Z,9.14
2019-05-12T07:42:58.123Z,9.22
2019-05-12T07:45:25.507Z,9.33
2019-05-12T07:47:54.104Z,9.45
2019-05-12T07:50:26.931Z,9.47
2019-05-12T07:52:51.151Z,9.47
2019-05-12T07:55:17.988Z,9.48
2019-05-12T07:57:54.734Z,9.44
2019-05-12T08:00:25.775Z,9.44
2019-05-12T08:02:48.407Z,9.49
2019-05-12T08:05:20.109Z,9.57
2019-05-12T08:07:44.587Z,9.60
2019-05-12T08:10:19.963Z,9.71
2019-05-12T08:12:44.340Z,9.79
2019-05-12T08:15:13.598Z,9.73
2019-05-12T08:17:40.353Z,9.74
2019-05-12T08:20:13.690Z,9.73
2019-05-12T08:22:40.980Z,9.70
2019-05-12T08:25:08.443Z,9.63
2019-05-12T08:27:39.068Z,9.71
2019-05-12T08:30:06.283Z,9.76
2019-05-12T08:32:33.853Z,9.76
2019-05-12T08:35:00.857Z,9.73
2019-05-12T08:37:27.640Z,9.73
2019-05-12T08:40:03.457Z,9.72
2019-05-12T08:42:23.816Z,9.60
2019-05-12T08:44:50.802Z,9.66
2019-05-12T08:47:17.573Z,9.69
2019-05-12T08:49:53.409Z,9.79
2019-05-12T08:52:14.192Z,9.84
2019-05-12T08:54:45.417Z,9.89
2019-05-12T08:57:09.927Z,9.89
2019-05-12T08:59:36.692Z,9.93
2019-05-12T09:02:07.377Z,10.01
2019-05-12T09:04:33.896Z,10.10
2019-05-12T09:07:01.740Z,10.14
2019-05-12T09:09:28.491Z,10.12
2019-05-12T09:11:55.722Z,10.23
2019-05-12T09:14:23.899Z,10.34
2019-05-12T09:16:56.003Z,10.39
2019-05-12T09:19:24.106Z,10.37
2019-05-12T09:21:48.317Z,10.47
2019-05-12T09:24:22.063Z,10.48
2019-05-12T09:26:43.869Z,10.49
2019-05-12T09:29:10.607Z,10.47
2019-05-12T09:31:37.679Z,10.40
2019-05-12T09:34:11.495Z,10.43
2019-05-12T09:36:34.066Z,10.46
2019-05-12T09:39:01.823Z,10.44
2019-05-12T09:41:35.938Z,10.47
2019-05-12T09:44:01.266Z,10.42
2019-05-12T09:46:28.433Z,10.33
2019-05-12T09:48:56.575Z,10.39
2019-05-12T09:51:23.909Z,10.50
2019-05-12T09:53:55.333Z,10.56
2019-05-12T09:56:23.831Z,10.60
2019-05-12T09:58:59.018Z,10.65
2019-05-12T10:01:19.664Z,10.68
2019-05-12T10:03:46.669Z,10.73
2019-05-12T10:06:17.898Z,10.71
2019-05-12T10:08:43.574Z,10.70
2019-05-12T10:11:15.766Z,10.72
2019-05-12T10:13:41.531Z,10.69
2019-05-12T10:16:09.010Z,10.65
2019-05-12T10:18:35.923Z,10.61
2019-05-12T10:21:03.058Z,10.52
2019-05-12T10:23:29.929Z,10.52
2019-05-12T10:26:01.568Z,10.69
2019-05-12T10:28:25.722Z,10.80
2019-05-12T10:30:56.561Z,10.85
2019-05-12T10:33:23.294Z,10.90
2019-05-12T10:35:50.211Z,11.14
2019-05-12T10:38:16.979Z,11.43
2019-05-12T10:40:44.521Z,11.65
2019-05-12T10:43:12.702Z,11.79
2019-05-12T10:45:39.640Z,12.07
2019-05-12T10:48:06.517Z,12.38
2019-05-12T10:50:34.306Z,12.78
2019-05-12T10:53:04.211Z,13.14
2019-05-12T10:55:30.719Z,13.36
2019-05-12T10:58:01.330Z,13.34
2019-05-12T11:00:27.603Z,13.26
2019-05-12T11:02:54.808Z,13.11
2019-05-12T11:05:23.794Z,12.77
2019-05-12T11:07:50.346Z,12.37
2019-05-12T11:10:20.048Z,12.14
2019-05-12T11:12:47.258Z,12.51
2019-05-12T11:15:15.247Z,13.04
2019-05-12T11:17:53.192Z,13.40
2019-05-12T11:20:19.961Z,13.16
2019-05-12T11:22:46.937Z,12.72
2019-05-12T11:25:14.491Z,12.65
2019-05-12T11:27:43.710Z,12.43
2019-05-12T11:30:13.198Z,12.37
2019-05-12T11:32:40.252Z,12.26
2019-05-12T11:35:07.591Z,12.14
2019-05-12T11:37:34.542Z,11.93
2019-05-12T11:40:01.311Z,11.94
2019-05-12T11:42:28.175Z,12.08
2019-05-12T11:44:55.458Z,12.53
2019-05-12T11:47:24.091Z,12.98
2019-05-12T11:49:53.527Z,12.92
2019-05-12T11:52:20.517Z,12.84
2019-05-12T11:54:51.137Z,12.89
2019-05-12T11:57:20.088Z,12.80
2019-05-12T11:59:58.037Z,12.55
2019-05-12T12:02:20.091Z,12.57
2019-05-12T12:04:45.308Z,13.05
2019-05-12T12:07:14.408Z,13.65
2019-05-12T12:09:43.830Z,13.90
2019-05-12T12:12:13.586Z,14.14
2019-05-12T12:14:46.232Z,14.52
2019-05-12T12:17:09.400Z,14.35
2019-05-12T12:19:43.651Z,14.34
2019-05-12T12:22:05.140Z,14.69
2019-05-12T12:24:33.255Z,15.08
2019-05-12T12:27:00.486Z,15.27
2019-05-12T12:29:27.268Z,15.19
2019-05-12T12:31:55.589Z,14.95
2019-05-12T12:34:25.104Z,15.26
2019-05-12T12:36:51.432Z,15.50
2019-05-12T12:39:19.340Z,15.65
2019-05-12T12:41:56.345Z,15.86
2019-05-12T12:44:15.365Z,15.85
2019-05-12T12:46:44.063Z,16.02
2019-05-12T12:49:13.761Z,16.16
2019-05-12T12:51:40.184Z,15.76
2019-05-12T12:54:07.195Z,15.43
2019-05-12T12:56:34.158Z,15.71
2019-05-12T12:59:10.254Z,15.98
2019-05-12T13:01:35.704Z,15.91
2019-05-12T13:04:04.753Z,15.96
2019-05-12T13:06:31.463Z,16.28
2019-05-12T13:08:58.343Z,16.25
2019-05-12T13:11:33.238Z,16.37
2019-05-12T13:13:53.823Z,16.77
2019-05-12T13:16:20.608Z,16.88
2019-05-12T13:18:47.534Z,17.10
2019-05-12T13:21:14.298Z,17.27
2019-05-12T13:23:41.405Z,17.08
2019-05-12T13:26:08.752Z,16.70
2019-05-12T13:28:35.758Z,17.05
2019-05-12T13:31:11.017Z,17.36
2019-05-12T13:33:33.478Z,16.94
2019-05-12T13:36:01.021Z,16.51
2019-05-12T13:38:30.471Z,16.03
2019-05-12T13:40:56.530Z,16.23
2019-05-12T13:43:23.922Z,16.60
2019-05-12T13:45:53.239Z,17.18
2019-05-12T13:48:24.064Z,17.66
2019-05-12T13:50:53.713Z,17.82
2019-05-12T13:53:21.450Z,17.82
2019-05-12T13:55:49.721Z,18.06
2019-05-12T13:58:17.707Z,18.07
2019-05-12T14:00:50.857Z,18.14
2019-05-12T14:03:13.991Z,17.22
2019-05-12T14:05:50.424Z,16.79
2019-05-12T14:08:10.226Z,17.06
2019-05-12T14:10:37.615Z,17.32
2019-05-12T14:13:05.722Z,17.15
2019-05-12T14:15:34.156Z,17.03
2019-05-12T14:18:03.285Z,17.42
2019-05-12T14:20:30.033Z,17.53
2019-05-12T14:22:56.784Z,17.53
2019-05-12T14:25:29.850Z,17.64
2019-05-12T14:27:53.589Z,17.51
2019-05-12T14:30:21.162Z,17.13
2019-05-12T14:32:49.242Z,17.02
2019-05-12T14:35:17.546Z,17.33
2019-05-12T14:37:45.935Z,17.42
2019-05-12T14:40:13.513Z,17.39
2019-05-12T14:42:40.579Z,17.47
2019-05-12T14:45:07.899Z,17.44
2019-05-12T14:47:34.630Z,17.60
2019-05-12T14:50:03.797Z,17.48
2019-05-12T14:52:33.277Z,17.57
2019-05-12T14:55:00.344Z,17.36
2019-05-12T14:57:29.360Z,17.24
2019-05-12T14:59:56.009Z,17.32
2019-05-12T15:02:27.726Z,17.44
2019-05-12T15:04:54.130Z,17.38
2019-05-12T15:07:20.772Z,17.26
2019-05-12T15:09:47.577Z,16.87
2019-05-12T15:12:14.496Z,16.78
2019-05-12T15:14:43.662Z,16.90
2019-05-12T15:17:13.874Z,16.87
2019-05-12T15:19:40.352Z,16.88
2019-05-12T15:22:11.817Z,17.01
2019-05-12T15:24:35.969Z,16.92
2019-05-12T15:27:03.904Z,17.15
2019-05-12T15:29:30.800Z,17.15
2019-05-12T15:31:57.637Z,16.99
2019-05-12T15:34:24.386Z,17.15
2019-05-12T15:36:55.458Z,17.18
2019-05-12T15:39:20.515Z,16.74
2019-05-12T15:41:51.140Z,16.34
2019-05-12T15:44:24.798Z,15.96
2019-05-12T15:46:48.228Z,15.75
2019-05-12T15:49:35.190Z,15.67
2019-05-12T15:52:03.523Z,15.54
2019-05-12T15:54:35.802Z,15.37
2019-05-12T15:57:00.230Z,15.37
2019-05-12T15:59:27.119Z,15.12
2019-05-12T16:02:08.383Z,14.95
2019-05-12T16:04:23.057Z,14.78
2019-05-12T16:06:57.088Z,14.69
2019-05-12T16:09:24.672Z,14.71
2019-05-12T16:11:51.437Z,14.79
2019-05-12T16:14:20.364Z,14.78
2019-05-12T16:16:47.226Z,14.76
2019-05-12T16:19:14.680Z,14.67
2019-05-12T16:21:45.585Z,14.64
2019-05-12T16:24:15.462Z,14.67
2019-05-12T16:26:51.576Z,14.62
2019-05-12T16:29:13.922Z,14.60
2019-05-12T16:31:45.567Z,14.56
2019-05-12T16:34:09.639Z,14.60
2019-05-12T16:36:41.234Z,14.53
2019-05-12T16:39:08.357Z,14.46
2019-05-12T16:41:35.293Z,14.38
2019-05-12T16:44:09.568Z,14.41
2019-05-12T16:46:31.374Z,14.44
2019-05-12T16:48:58.448Z,14.37
2019-05-12T16:51:26.483Z,14.31
2019-05-12T16:53:54.048Z,14.29
2019-05-12T16:56:28.067Z,14.22
2019-05-12T16:58:49.690Z,14.13
2019-05-12T17:01:24.325Z,14.12
2019-05-12T17:03:46.756Z,14.10
2019-05-12T17:06:14.402Z,14.12
2019-05-12T17:08:43.683Z,14.16
2019-05-12T17:11:25.375Z,14.22
2019-05-12T17:13:39.376Z,14.16
2019-05-12T17:16:06.403Z,14.08
2019-05-12T17:18:33.978Z,13.98
2019-05-12T17:21:01.104Z,13.93
2019-05-12T17:23:28.354Z,13.97
2019-05-12T17:25:58.994Z,13.92
2019-05-12T17:28:26.259Z,13.87
2019-05-12T17:30:54.390Z,13.86
2019-05-12T17:33:23.119Z,13.86
2019-05-12T17:35:50.453Z,13.81
2019-05-12T17:38:19.738Z,13.78
2019-05-12T17:40:50.276Z,13.75
2019-05-12T17:43:15.049Z,13.71
2019-05-12T17:45:44.150Z,13.70
2019-05-12T17:48:10.803Z,13.63
2019-05-12T17:50:40.547Z,13.58
2019-05-12T17:53:07.290Z,13.56
2019-05-12T17:55:34.081Z,13.56
2019-05-12T17:58:01.021Z,13.46
2019-05-12T18:00:28.338Z,13.40
2019-05-12T18:03:14.090Z,13.39
2019-05-12T18:05:23.987Z,13.35
2019-05-12T18:07:53.194Z,13.37
2019-05-12T18:10:20.232Z,13.34
2019-05-12T18:12:48.295Z,13.26
2019-05-12T18:15:16.000Z,13.18
2019-05-12T18:17:45.245Z,13.16
2019-05-12T18:20:14.403Z,13.10
2019-05-12T18:22:45.041Z,13.05
2019-05-12T18:25:11.155Z,12.98
2019-05-12T18:27:44.543Z,12.92
2019-05-12T18:30:08.681Z,12.89
2019-05-12T18:32:35.489Z,12.88
2019-05-12T18:35:06.169Z,12.80
2019-05-12T18:37:34.412Z,12.82
2019-05-12T18:40:03.956Z,12.78
2019-05-12T18:42:33.597Z,12.73
2019-05-12T18:45:02.367Z,12.69
2019-05-12T18:47:34.189Z,12.62
2019-05-12T18:49:58.963Z,12.62
2019-05-12T18:52:29.181Z,12.57
2019-05-12T18:54:57.273Z,12.50
2019-05-12T18:57:26.200Z,12.47
2019-05-12T18:59:55.166Z,12.45
2019-05-12T19:02:27.920Z,12.46
2019-05-12T19:04:55.645Z,12.27
2019-05-12T19:07:38.646Z,12.06
2019-05-12T19:09:51.568Z,11.97
2019-05-12T19:12:22.506Z,11.84
2019-05-12T19:14:47.601Z,11.64
2019-05-12T19:17:14.378Z,11.46
2019-05-12T19:19:41.671Z,11.33
2019-05-12T19:22:09.702Z,11.21
2019-05-12T19:24:37.348Z,11.06
2019-05-12T19:27:04.459Z,10.70
2019-05-12T19:29:38.247Z,10.50
2019-05-12T19:32:00.388Z,10.25
2019-05-12T19:34:31.786Z,10.22
2019-05-12T19:36:56.459Z,10.21
2019-05-12T19:39:25.408Z,10.02
2019-05-12T19:41:54.394Z,9.83
2019-05-12T19:44:26.518Z,9.92
2019-05-12T19:46:53.988Z,10.00
2019-05-12T19:49:26.164Z,9.89
2019-05-12T19:51:51.040Z,9.98
2019-05-12T19:54:19.370Z,10.09
2019-05-12T19:56:47.289Z,10.12
2019-05-12T19:59:14.769Z,10.20
2019-05-12T20:01:44.358Z,10.01
2019-05-12T20:04:10.983Z,9.66
2019-05-12T20:06:37.916Z,9.58
2019-05-12T20:09:10.122Z,9.28
2019-05-12T20:11:34.319Z,9.35
2019-05-12T20:14:01.138Z,9.39
2019-05-12T20:16:30.726Z,9.15
2019-05-12T20:18:58.066Z,9.15
2019-05-12T20:21:25.881Z,9.01
2019-05-12T20:23:54.402Z,9.05
2019-05-12T20:26:23.569Z,9.10
2019-05-12T20:28:53.391Z,8.95
2019-05-12T20:31:23.475Z,8.98
2019-05-12T20:33:48.907Z,9.13
2019-05-12T20:36:20.512Z,8.92
2019-05-12T20:38:44.603Z,8.75
2019-05-12T20:41:22.364Z,8.83
2019-05-12T20:43:42.030Z,8.97
2019-05-12T20:46:13.090Z,8.71
2019-05-12T20:48:37.702Z,8.50
2019-05-12T20:51:08.668Z,8.53
2019-05-12T20:53:36.446Z,8.41
2019-05-12T20:56:03.686Z,8.45
2019-05-12T20:58:35.214Z,8.33
2019-05-12T21:01:04.518Z,8.15
2019-05-12T21:03:30.349Z,8.00
2019-05-12T21:06:01.442Z,8.08
2019-05-12T21:08:26.385Z,8.09
2019-05-12T21:10:54.230Z,7.86
2019-05-12T21:13:29.695Z,7.98
2019-05-12T21:15:53.738Z,7.84
2019-05-12T21:18:19.861Z,7.64
2019-05-12T21:20:52.301Z,7.57
2019-05-12T21:23:17.482Z,7.61
2019-05-12T21:25:52.181Z,7.52
2019-05-12T21:28:14.811Z,7.65
2019-05-12T21:30:42.461Z,7.75
2019-05-12T21:33:10.652Z,7.86
2019-05-12T21:35:40.532Z,7.96
2019-05-12T21:38:06.210Z,7.69
2019-05-12T21:40:35.093Z,7.80
2019-05-12T21:43:04.084Z,7.49
2019-05-12T21:45:33.875Z,7.22
2019-05-12T21:48:00.989Z,7.17
2019-05-12T21:50:32.633Z,7.24
2019-05-12T21:52:59.984Z,7.19
2019-05-12T21:55:26.821Z,7.09
2019-05-12T21:57:53.997Z,7.12
2019-05-12T22:00:31.214Z,7.22
2019-05-12T22:03:02.663Z,7.24
2019-05-12T22:05:46.915Z,7.11
2019-05-12T22:07:56.330Z,7.01
2019-05-12T22:10:26.770Z,7.06
2019-05-12T22:12:53.339Z,7.27
2019-05-12T22:15:24.274Z,7.12
2019-05-12T22:17:58.535Z,7.09
2019-05-12T22:20:25.885Z,6.84
2019-05-12T22:22:52.826Z,6.96
2019-05-12T22:25:19.636Z,6.91
2019-05-12T22:27:46.900Z,6.71
2019-05-12T22:30:14.313Z,6.69
2019-05-12T22:32:43.352Z,6.67
2019-05-12T22:35:13.187Z,6.44
2019-05-12T22:37:39.710Z,6.56
2019-05-12T22:40:15.077Z,6.75
2019-05-12T22:42:35.358Z,6.83
2019-05-12T22:45:05.947Z,6.54
2019-05-12T22:47:33.530Z,6.66
2019-05-12T22:50:00.788Z,6.82
2019-05-12T22:52:27.579Z,6.87
2019-05-12T22:54:54.317Z,6.69
2019-05-12T22:57:21.199Z,6.77
2019-05-12T22:59:48.564Z,6.81
2019-05-12T23:02:24.559Z,6.66
2019-05-12T23:04:44.411Z,6.55
2019-05-12T23:07:13.841Z,6.38
2019-05-12T23:09:40.649Z,6.30
2019-05-12T23:12:09.664Z,6.20
2019-05-12T23:14:37.586Z,6.41
2019-05-12T23:17:07.532Z,6.45
2019-05-12T23:19:34.794Z,6.54
2019-05-12T23:22:03.523Z,6.61
2019-05-12T23:24:37.299Z,6.63
2019-05-12T23:27:04.639Z,6.51
2019-05-12T23:29:31.232Z,6.65
2019-05-12T23:32:11.561Z,6.78
2019-05-12T23:34:34.806Z,6.69
2019-05-12T23:37:03.875Z,6.24
2019-05-12T23:39:32.545Z,6.17
2019-05-12T23:41:59.582Z,6.22
2019-05-12T23:44:26.740Z,5.99
2019-05-12T23:46:56.017Z,6.19
2019-05-12T23:49:24.454Z,6.34
2019-05-12T23:51:54.154Z,6.20
2019-05-12T23:54:20.800Z,6.13
2019-05-12T23:56:47.831Z,6.13
2019-05-12T23:59:14.706Z,6.03
